Southampton, Southampton Airport (EGHI)

NameSouthampton Airport
CitySouthampton
CountryUnited Kingdom
ICAOEGHI
IATASOU
Altitude44 feet
CoordinatesGoogle Map
Live Air TrafficLiveATC.net
METAREGHI 230820Z 27010KT 230V310 9000 -DZ FEW014 SCT018 BKN031 17/13 Q1017
2024-07-23 08:20:00 Wind: West (270°) 5.14 m/s - Visibility: 9000 m - Weather: Light Drizzle - Temperature: 17 °C - Dew point: 13 °C - Humidity: 77.5% - Pressure: 1017 hPa

Sorry, no flights used the airport in this database.